Silver Wind — C6FG2 — position and weather

sailwx.info

Track history (hours):
 
Tides and Currents Weather Stations Pressure Air Temp Water Temp Dewpoint Dewpoint Depression Visibility Wind Speed Wind Dir Waves Ship Positions

Silver Wind

Operator: V Ships Leisure

Last reported at 2019-Jul-16 10:53 UTC. Time now 2019-Jul-16 11:14 UTC.
Position N 49°28' W 002°31'.

Length 156 m; draft 5.7 m.

Type: Passenger vessel. MMSI: 308814000.

Date/timePositionNaut miles runAvg speedWind from/ knotsBaromVisibWave heightAir tempDewpointWater temp
2019-Jul-16 10:53N 49°28' W 002°31'0 0.0
2019-Jul-16 09:53N 49°28' W 002°31'0 0.0
2019-Jul-16 09:29N 49°28' W 002°31'0 0.0
2019-Jul-16 08:53N 49°28' W 002°31'0 0.0
2019-Jul-16 08:23N 49°28' W 002°31'0 0.0
2019-Jul-16 07:53N 49°28' W 002°31'0 0.0
2019-Jul-16 07:29N 49°28' W 002°31'0 0.0
2019-Jul-16 06:56N 49°28' W 002°31'0 0.1
2019-Jul-16 06:27N 49°28' W 002°31'0 0.6
2019-Jul-16 06:00N 49°28' W 002°31'510.3
2019-Jul-16 05:30N 49°24' W 002°26'510.8
2019-Jul-16 05:01N 49°23' W 002°18'510.1
2019-Jul-16 04:30N 49°26' W 002°12'510.8
2019-Jul-16 04:01N 49°32' W 002°10'510.8
2019-Jul-16 03:31N 49°37' W 002°07'510.8
2019-Jul-16 03:01N 49°42' W 002°05'611.5
2019-Jul-16 02:29N 49°48' W 002°03'510.7
2019-Jul-16 01:59N 49°49' W 001°55'611.3
2019-Jul-16 01:29N 49°51' W 001°46'712.0
2019-Jul-16 00:57N 49°52' W 001°36'611.8
2019-Jul-16 00:25N 49°52' W 001°27'2612.0
2019-Jul-15 22:17N 49°43' W 000°50'311.6
2019-Jul-15 22:00N 49°42' W 000°46'611.6
2019-Jul-15 21:30N 49°39' W 000°38'611.8
2019-Jul-15 21:00N 49°37' W 000°29'611.8
2019-Jul-15 20:30N 49°35' W 000°21'611.6
2019-Jul-15 20:00N 49°33' W 000°12'611.9
2019-Jul-15 19:31N 49°31' W 000°04'612.5
2019-Jul-15 19:00N 49°29' E 000°06'1 1.1
2019-Jul-15 18:30N 49°29' E 000°06'0 0.0
2019-Jul-15 18:00N 49°29' E 000°06'0 0.0
2019-Jul-15 17:30N 49°29' E 000°06'0 0.0
2019-Jul-15 17:00N 49°29' E 000°06'0 0.0
2019-Jul-15 16:30N 49°29' E 000°06'0 0.0
2019-Jul-15 16:00N 49°29' E 000°06'0 0.0
2019-Jul-15 15:30N 49°29' E 000°06'0 0.0
2019-Jul-15 15:00N 49°29' E 000°06'0 0.0
2019-Jul-15 14:30N 49°29' E 000°06'0 0.0
2019-Jul-15 14:00N 49°29' E 000°06'0 0.0
2019-Jul-15 13:30N 49°29' E 000°06'0 0.0
2019-Jul-15 13:00N 49°29' E 000°06'0 0.0
2019-Jul-15 12:30N 49°29' E 000°06'0 0.0
2019-Jul-15 12:00N 49°29' E 000°06'0 0.0
2019-Jul-15 11:30N 49°29' E 000°06'0 0.0
2019-Jul-15 11:00N 49°29' E 000°06'0 0.0
2019-Jul-15 10:30N 49°29' E 000°06'0 0.0
2019-Jul-15 10:00N 49°29' E 000°06'0 0.0
2019-Jul-15 09:30N 49°29' E 000°06'0 0.0
2019-Jul-15 09:00N 49°29' E 000°06'0 0.0
2019-Jul-15 08:30N 49°29' E 000°06'0 0.0
2019-Jul-15 08:00N 49°29' E 000°06'0 0.0
2019-Jul-15 07:30N 49°29' E 000°06'0 0.0
2019-Jul-15 07:00N 49°29' E 000°06'0 0.0
2019-Jul-15 06:30N 49°29' E 000°06'0 1.0
2019-Jul-15 06:00N 49°29' E 000°06'815.1
2019-Jul-15 05:30N 49°31' W 000°06'511.0
2019-Jul-15 05:01N 49°34' W 000°12'714.4
2019-Jul-15 04:31N 49°41' W 000°13'714.5
2019-Jul-15 04:01N 49°49' W 000°13'714.5
2019-Jul-15 03:31N 49°56' W 000°13'714.4
2019-Jul-15 03:00N 50°03' W 000°13'714.5
2019-Jul-15 02:30N 50°10' W 000°13'1216.3
2019-Jul-15 01:45N 50°23' W 000°12'413.5
2019-Jul-15 01:26N 50°27' W 000°09'1615.4
2019-Jul-15 00:23N 50°31' E 000°15'1715.7
2019-Jul-14 23:17N 50°37' E 000°41'416.4
2019-Jul-14 23:00N 50°39' E 000°47'816.1
2019-Jul-14 22:30N 50°44' E 000°57'815.6
2019-Jul-14 21:59N 50°49' E 001°08'715.3
2019-Jul-14 21:30N 50°54' E 001°16'714.3
2019-Jul-14 21:01N 50°59' E 001°24'714.8
2019-Jul-14 20:30N 51°04' E 001°32'714.8
2019-Jul-14 20:00N 51°09' E 001°40'815.0
2019-Jul-14 19:31N 51°15' E 001°48'815.6
2019-Jul-14 19:01N 51°21' E 001°55'713.3
2019-Jul-14 18:31N 51°24' E 002°05'714.2
2019-Jul-14 18:01N 51°21' E 002°15'815.1
2019-Jul-14 17:30N 51°23' E 002°27'815.8
2019-Jul-14 17:00N 51°22' E 002°40'815.5
2019-Jul-14 16:31N 51°22' E 002°52'917.3
2019-Jul-14 16:00N 51°24' E 003°06'510.8
2019-Jul-14 15:30N 51°20' E 003°12'0 0.0
2019-Jul-14 14:27N 51°20' E 003°12'0 0.0
2019-Jul-14 13:51N 51°20' E 003°12'0 0.0
2019-Jul-14 13:30N 51°20' E 003°12'0 0.0
2019-Jul-14 12:57N 51°20' E 003°12'0 0.0
2019-Jul-14 12:27N 51°20' E 003°12'0 0.0
2019-Jul-14 11:45N 51°20' E 003°12'0 0.0
2019-Jul-14 11:15N 51°20' E 003°12'0 0.0
2019-Jul-14 10:51N 51°20' E 003°12'0 0.0
2019-Jul-14 10:27N 51°20' E 003°12'0 0.0
2019-Jul-14 09:33N 51°20' E 003°12'0 0.0
2019-Jul-14 09:27N 51°20' E 003°12'0 0.0
2019-Jul-14 08:45N 51°20' E 003°12'0 0.0
2019-Jul-14 08:18N 51°20' E 003°12'0 0.0
2019-Jul-14 07:45N 51°20' E 003°12'0 0.0
2019-Jul-14 07:27N 51°20' E 003°12'0 0.0
2019-Jul-14 07:00N 51°20' E 003°12'0 0.0
2019-Jul-14 06:27N 51°20' E 003°12'0 0.0
2019-Jul-14 05:57N 51°20' E 003°12'0 0.3
2019-Jul-14 05:30N 51°20' E 003°13'5 9.2
2019-Jul-14 05:00N 51°24' E 003°08'714.4
2019-Jul-14 04:29N 51°22' E 002°56'715.2
2019-Jul-14 04:00N 51°22' E 002°45'5 8.8
2019-Jul-14 03:24N 51°26' E 002°50'611.0
2019-Jul-14 02:51N 51°29' E 002°59'512.6
2019-Jul-14 02:26N 51°32' E 003°05'2911.4
2019-Jul-13 23:52N 51°60' E 003°20'411.5
2019-Jul-13 23:30N 52°04' E 003°21'611.5
2019-Jul-13 23:00N 52°10' E 003°22'611.2
2019-Jul-13 22:30N 52°15' E 003°26'611.6
2019-Jul-13 22:00N 52°20' E 003°30'711.4
2019-Jul-13 21:21N 52°27' E 003°35'411.6
2019-Jul-13 21:00N 52°30' E 003°39'612.3
2019-Jul-13 20:30N 52°31' E 003°49'612.6
2019-Jul-13 20:00N 52°31' E 003°59'612.5
2019-Jul-13 19:30N 52°31' E 004°09'612.7
2019-Jul-13 19:00N 52°30' E 004°19'612.3
2019-Jul-13 18:31N 52°28' E 004°29'4 8.9
2019-Jul-13 18:01N 52°28' E 004°36'1 2.9
2019-Jul-13 17:30N 52°28' E 004°39'4 8.6
2019-Jul-13 17:01N 52°26' E 004°45'4 8.8
2019-Jul-13 16:31N 52°25' E 004°52'3 5.5
2019-Jul-13 16:00N 52°23' E 004°55'0 0.0
2019-Jul-13 15:30N 52°23' E 004°55'0 0.0
2019-Jul-13 14:58N 52°23' E 004°55'0 0.0
2019-Jul-13 14:28N 52°23' E 004°55'0 0.0
2019-Jul-13 13:58N 52°23' E 004°55'0 0.0
2019-Jul-13 13:25N 52°23' E 004°55'0 0.0
2019-Jul-13 12:58N 52°23' E 004°55'0 0.0
2019-Jul-13 12:28N 52°23' E 004°55'0 0.0
2019-Jul-13 11:58N 52°23' E 004°55'0 0.0
2019-Jul-13 11:28N 52°23' E 004°55'0 0.0
2019-Jul-13 10:58N 52°23' E 004°55'0 0.0
2019-Jul-13 10:28N 52°23' E 004°55'0 0.0
2019-Jul-13 09:58N 52°23' E 004°55'0 0.0
2019-Jul-13 09:28N 52°23' E 004°55'0 0.0
2019-Jul-13 08:58N 52°23' E 004°55'0 0.0
2019-Jul-13 08:28N 52°23' E 004°55'0 0.0
2019-Jul-13 07:58N 52°23' E 004°55'0 0.0
2019-Jul-13 07:28N 52°23' E 004°55'0 0.0
2019-Jul-13 06:58N 52°23' E 004°55'0 0.0
2019-Jul-13 06:28N 52°23' E 004°55'0 0.0
2019-Jul-13 05:58N 52°23' E 004°55'0 0.0
2019-Jul-13 05:28N 52°23' E 004°55'0 0.0
2019-Jul-13 04:58N 52°23' E 004°55'0 0.0
2019-Jul-13 04:28N 52°23' E 004°55'0 0.0
2019-Jul-13 03:58N 52°23' E 004°55'0 0.0
2019-Jul-13 03:28N 52°23' E 004°55'0 0.0
2019-Jul-13 02:58N 52°23' E 004°55'0 0.0
2019-Jul-13 02:28N 52°23' E 004°55'0 0.0
2019-Jul-13 01:58N 52°23' E 004°55'0 0.0
2019-Jul-13 01:28N 52°23' E 004°55'0 0.0
2019-Jul-13 00:58N 52°23' E 004°55'0 0.0
2019-Jul-13 00:28N 52°23' E 004°55'0 0.0
2019-Jul-12 23:58N 52°23' E 004°55'0 0.0
2019-Jul-12 23:28N 52°23' E 004°55'0 0.0
2019-Jul-12 22:58N 52°23' E 004°55'0 0.0
2019-Jul-12 22:28N 52°23' E 004°55'0 0.0
2019-Jul-12 21:58N 52°23' E 004°55'0 0.0
2019-Jul-12 21:28N 52°23' E 004°55'0 0.0
2019-Jul-12 20:58N 52°23' E 004°55'0 0.0
2019-Jul-12 20:28N 52°23' E 004°55'0 0.0
2019-Jul-12 19:58N 52°23' E 004°55'0 0.1
2019-Jul-12 19:28N 52°23' E 004°55'0 0.1
2019-Jul-12 18:58N 52°23' E 004°55'0 0.0
2019-Jul-12 18:28N 52°23' E 004°55'0 0.0
2019-Jul-12 17:58N 52°23' E 004°55'0 0.0
2019-Jul-12 17:28N 52°23' E 004°55'0 0.0
2019-Jul-12 16:58N 52°23' E 004°55'0 0.0
2019-Jul-12 16:28N 52°23' E 004°55'0 0.0
2019-Jul-12 15:58N 52°23' E 004°55'0 0.0
2019-Jul-12 15:28N 52°23' E 004°55'0 0.0
2019-Jul-12 14:58N 52°23' E 004°55'0 0.0
2019-Jul-12 14:28N 52°23' E 004°55'0 0.0
2019-Jul-12 13:58N 52°23' E 004°55'0 0.0
2019-Jul-12 13:28N 52°23' E 004°55'0 0.0
2019-Jul-12 12:58N 52°23' E 004°55'0 0.0
2019-Jul-12 12:28N 52°23' E 004°55'0 0.0
2019-Jul-12 11:58N 52°23' E 004°55'0 0.0
2019-Jul-12 11:28N 52°23' E 004°55'0 0.0
2019-Jul-12 10:58N 52°23' E 004°55'0 0.0
2019-Jul-12 10:28N 52°23' E 004°55'0 0.0
2019-Jul-12 09:58N 52°23' E 004°55'2 4.1
2019-Jul-12 09:28N 52°25' E 004°55'2 4.1
2019-Jul-12 08:58N 52°23' E 004°55'0 0.0
2019-Jul-12 08:28N 52°23' E 004°55'0 0.0
2019-Jul-12 07:58N 52°23' E 004°55'0 0.0
2019-Jul-12 07:28N 52°23' E 004°55'0 0.0
2019-Jul-12 06:58N 52°23' E 004°55'0 0.0
2019-Jul-12 06:28N 52°23' E 004°55'0 0.0
2019-Jul-12 06:00N 52°23' E 004°55'0 0.0
2019-Jul-12 05:30N 52°23' E 004°55'0 1.0
2019-Jul-12 05:00N 52°23' E 004°54'3 6.3
2019-Jul-12 04:30N 52°25' E 004°51'4 8.0
2019-Jul-12 04:01N 52°26' E 004°44'4 7.7
2019-Jul-12 03:31N 52°28' E 004°39'1 2.5
2019-Jul-12 03:01N 52°28' E 004°37'2 3.9
2019-Jul-12 02:31N 52°28' E 004°33'1211.5
2019-Jul-12 01:30N 52°30' E 004°15'510.7
2019-Jul-12 01:01N 52°32' E 004°07'611.9
2019-Jul-12 00:30N 52°38' E 004°03'611.9
2019-Jul-12 00:00N 52°43' E 004°00'611.8
2019-Jul-11 23:30N 52°49' E 003°58'611.8
2019-Jul-11 23:00N 52°55' E 003°60'611.2
2019-Jul-11 22:30N 52°59' E 004°05'611.6
2019-Jul-11 22:00N 53°03' E 004°12'611.2
2019-Jul-11 21:30N 53°07' E 004°19'611.5
2019-Jul-11 21:00N 53°12' E 004°25'611.6
2019-Jul-11 20:30N 53°17' E 004°29'611.6
2019-Jul-11 20:00N 53°23' E 004°31'23212.1
2019-Jul-11 00:51N 56°52' E 007°24'412.4
2019-Jul-11 00:30N 56°56' E 007°27'712.3
2019-Jul-10 23:58N 57°03' E 007°32'612.4
2019-Jul-10 23:30N 57°08' E 007°37'711.9
2019-Jul-10 22:55N 57°13' E 007°44'512.2
2019-Jul-10 22:28N 57°18' E 007°49'612.1
2019-Jul-10 22:00N 57°23' E 007°53'612.1
2019-Jul-10 21:31N 57°29' E 007°58'612.0
2019-Jul-10 21:00N 57°34' E 008°03'612.2
2019-Jul-10 20:29N 57°40' E 008°08'612.0
2019-Jul-10 20:00N 57°45' E 008°13'612.2
2019-Jul-10 19:30N 57°50' E 008°18'612.3
2019-Jul-10 19:00N 57°56' E 008°23'612.3
2019-Jul-10 18:30N 58°02' E 008°28'612.4
2019-Jul-10 18:00N 58°07' E 008°34'612.4
2019-Jul-10 17:30N 58°13' E 008°39'612.4
2019-Jul-10 17:01N 58°18' E 008°44'612.2
2019-Jul-10 16:30N 58°24' E 008°49'4 7.8
2019-Jul-10 16:00N 58°27' E 008°46'0 0.3
2019-Jul-10 15:30N 58°28' E 008°46'0 0.0
2019-Jul-10 14:52N 58°28' E 008°46'0 0.0
2019-Jul-10 14:28N 58°28' E 008°46'0 0.0
2019-Jul-10 13:58N 58°28' E 008°46'0 0.0
2019-Jul-10 13:28N 58°28' E 008°46'0 0.0
2019-Jul-10 12:55N 58°28' E 008°46'0 0.0
2019-Jul-10 11:46N 58°28' E 008°46'0 0.0
2019-Jul-10 10:55N 58°28' E 008°46'0 0.0
2019-Jul-10 10:04N 58°28' E 008°46'1 0.3
2019-Jul-10 05:27N 58°26' E 008°47'3 7.3
2019-Jul-10 05:00N 58°24' E 008°52'4 8.6
2019-Jul-10 04:30N 58°27' E 008°59'4 7.8
2019-Jul-10 04:00N 58°29' E 009°05'4 7.9
2019-Jul-10 03:30N 58°31' E 009°11'4 7.2
2019-Jul-10 02:58N 58°33' E 009°17'3 7.2
2019-Jul-10 02:30N 58°35' E 009°23'4 7.0
2019-Jul-10 02:00N 58°37' E 009°28'4 7.1
2019-Jul-10 01:30N 58°40' E 009°33'4 7.4
2019-Jul-10 01:00N 58°41' E 009°40'4 7.2
2019-Jul-10 00:30N 58°43' E 009°45'3 6.7
2019-Jul-10 00:00N 58°45' E 009°51'5 6.4
2019-Jul-09 23:14N 58°48' E 009°59'2 6.4
2019-Jul-09 23:00N 58°49' E 010°01'3 6.8
2019-Jul-09 22:30N 58°50' E 010°07'4 7.6
2019-Jul-09 22:01N 58°52' E 010°13'4 7.7
2019-Jul-09 21:31N 58°54' E 010°19'4 7.4
2019-Jul-09 21:01N 58°56' E 010°25'4 7.2
2019-Jul-09 20:30N 58°58' E 010°31'3 6.4
2019-Jul-09 20:01N 59°01' E 010°35'3 6.8
2019-Jul-09 19:30N 59°04' E 010°34'613.0
2019-Jul-09 19:01N 59°10' E 010°37'917.5
2019-Jul-09 18:31N 59°19' E 010°35'917.3
2019-Jul-09 18:01N 59°28' E 010°33'917.2
2019-Jul-09 17:31N 59°36' E 010°38'714.2
2019-Jul-09 16:59N 59°43' E 010°34'815.6
2019-Jul-09 16:30N 59°51' E 010°37'5 8.5
2019-Jul-09 15:52N 59°54' E 010°45'0 0.0
2019-Jul-09 14:15N 59°54' E 010°45'0 0.0
2019-Jul-09 14:00N 59°54' E 010°45'0 0.0
2019-Jul-09 13:30N 59°54' E 010°45'0 0.0
2019-Jul-09 13:00N 59°54' E 010°45'0 0.0
2019-Jul-09 12:30N 59°54' E 010°45'0 0.0
2019-Jul-09 12:00N 59°54' E 010°45'0 0.0
2019-Jul-09 11:30N 59°54' E 010°45'0 0.0
2019-Jul-09 11:00N 59°54' E 010°45'0 0.0
2019-Jul-09 10:30N 59°54' E 010°45'0 0.0
2019-Jul-09 10:00N 59°54' E 010°45'0 0.0
2019-Jul-09 09:30N 59°54' E 010°45'0 0.0
2019-Jul-09 09:00N 59°54' E 010°45'0 0.0
2019-Jul-09 08:30N 59°54' E 010°45'0 0.0
2019-Jul-09 08:00N 59°54' E 010°45'0 0.0
2019-Jul-09 07:30N 59°54' E 010°45'0 0.0
2019-Jul-09 07:00N 59°54' E 010°45'0 0.0
2019-Jul-09 06:30N 59°54' E 010°45'0 0.0
2019-Jul-09 06:00N 59°54' E 010°45'1 2.2
2019-Jul-09 05:30N 59°54' E 010°43'612.4
2019-Jul-09 05:00N 59°49' E 010°35'815.4
2019-Jul-09 04:31N 59°41' E 010°36'714.8
2019-Jul-09 04:00N 59°34' E 010°38'816.0
2019-Jul-09 03:31N 59°27' E 010°34'816.1
2019-Jul-09 03:01N 59°19' E 010°37'815.9
2019-Jul-09 02:31N 59°11' E 010°39'713.4
2019-Jul-09 02:01N 59°04' E 010°35'5 9.9
2019-Jul-09 01:30N 58°60' E 010°37'510.7
2019-Jul-09 01:00N 58°54' E 010°41'510.6
2019-Jul-09 00:30N 58°49' E 010°43'510.8
2019-Jul-09 00:00N 58°44' E 010°46'510.6
2019-Jul-08 23:30N 58°39' E 010°48'510.5
2019-Jul-08 23:00N 58°34' E 010°51'510.4
2019-Jul-08 22:30N 58°29' E 010°54'510.6
2019-Jul-08 22:00N 58°24' E 010°57'511.0
2019-Jul-08 21:30N 58°19' E 010°60'611.3
2019-Jul-08 21:01N 58°13' E 011°03'511.0
2019-Jul-08 20:31N 58°08' E 011°06'510.9
2019-Jul-08 20:00N 58°03' E 011°08'611.4
2019-Jul-08 19:31N 57°57' E 011°12'611.3
2019-Jul-08 19:01N 57°52' E 011°15'611.1
2019-Jul-08 18:31N 57°46' E 011°18'510.8
2019-Jul-08 18:01N 57°42' E 011°22'510.7
2019-Jul-08 17:31N 57°38' E 011°29'510.9
2019-Jul-08 17:01N 57°37' E 011°39'611.8
2019-Jul-08 16:31N 57°40' E 011°48'5 9.3
2019-Jul-08 16:00N 57°42' E 011°56'0 0.0
2019-Jul-08 15:30N 57°42' E 011°56'0 0.0
2019-Jul-08 15:00N 57°42' E 011°56'0 0.0
2019-Jul-08 14:30N 57°42' E 011°56'0 0.0
2019-Jul-08 14:00N 57°42' E 011°56'0 0.0
2019-Jul-08 13:30N 57°42' E 011°56'0 0.0
2019-Jul-08 13:00N 57°42' E 011°56'0 0.0
2019-Jul-08 12:30N 57°42' E 011°56'0 0.0
2019-Jul-08 12:00N 57°42' E 011°56'0 0.0
2019-Jul-08 11:30N 57°42' E 011°56'0 0.0
2019-Jul-08 11:00N 57°42' E 011°56'0 0.0
2019-Jul-08 10:30N 57°42' E 011°56'0 0.0
2019-Jul-08 10:00N 57°42' E 011°56'0 0.0
2019-Jul-08 09:30N 57°42' E 011°56'0 0.0
2019-Jul-08 09:00N 57°42' E 011°56'0 0.0
2019-Jul-08 08:30N 57°42' E 011°56'0 0.0
2019-Jul-08 08:00N 57°42' E 011°56'0 0.0
2019-Jul-08 07:30N 57°42' E 011°56'0 0.0
2019-Jul-08 07:00N 57°42' E 011°56'0 0.0
2019-Jul-08 06:30N 57°42' E 011°56'0 0.0
2019-Jul-08 06:00N 57°42' E 011°56'0 0.6
2019-Jul-08 05:30N 57°42' E 011°55'4 7.5
2019-Jul-08 05:00N 57°41' E 011°49'714.8
2019-Jul-08 04:30N 57°35' E 011°39'611.2
2019-Jul-08 04:00N 57°30' E 011°38'510.3
2019-Jul-08 03:30N 57°25' E 011°39'5 9.5
2019-Jul-08 03:00N 57°20' E 011°39'5 9.4
2019-Jul-08 02:30N 57°15' E 011°39'5 9.9
2019-Jul-08 02:00N 57°10' E 011°40'5 9.8
2019-Jul-08 01:30N 57°06' E 011°41'5 9.9
2019-Jul-08 01:00N 57°01' E 011°44'5 9.6
2019-Jul-08 00:30N 56°56' E 011°47'6 9.7
2019-Jul-07 23:54N 56°51' E 011°51'15 9.8
2019-Jul-07 22:23N 56°36' E 011°57'25 9.2
2019-Jul-07 19:41N 56°14' E 012°17'3 9.9
2019-Jul-07 19:25N 56°12' E 012°21'410.1
2019-Jul-07 19:00N 56°10' E 012°26'5 9.7
2019-Jul-07 18:30N 56°07' E 012°33'510.0
2019-Jul-07 18:01N 56°03' E 012°40'612.1
2019-Jul-07 17:30N 55°57' E 012°43'713.1
2019-Jul-07 17:00N 55°51' E 012°43'713.4
2019-Jul-07 16:30N 55°44' E 012°40'4 7.0
2019-Jul-07 16:00N 55°42' E 012°36'0 0.7
2019-Jul-07 15:30N 55°41' E 012°36'0 0.0
2019-Jul-07 14:59N 55°41' E 012°36'0 0.0
2019-Jul-07 14:23N 55°41' E 012°36'0 0.0
2019-Jul-07 13:56N 55°41' E 012°36'0 0.0
2019-Jul-07 13:29N 55°41' E 012°36'0 0.0
2019-Jul-07 12:53N 55°41' E 012°36'0 0.0
2019-Jul-07 12:29N 55°41' E 012°36'0 0.0
2019-Jul-07 11:59N 55°41' E 012°36'0 0.0
2019-Jul-07 11:29N 55°41' E 012°36'0 0.0
2019-Jul-07 10:56N 55°41' E 012°36'0 0.0
2019-Jul-07 10:29N 55°41' E 012°36'0 0.0
2019-Jul-07 09:59N 55°41' E 012°36'0 0.0
2019-Jul-07 09:26N 55°41' E 012°36'0 0.0
2019-Jul-07 08:59N 55°41' E 012°36'0 0.0
2019-Jul-07 08:29N 55°41' E 012°36'0 0.0
2019-Jul-07 07:59N 55°41' E 012°36'0 0.0
2019-Jul-07 07:29N 55°41' E 012°36'0 0.0
2019-Jul-07 06:59N 55°41' E 012°36'0 0.0
2019-Jul-07 06:29N 55°41' E 012°36'0 0.0
2019-Jul-07 05:59N 55°41' E 012°36'0 0.0
2019-Jul-07 05:29N 55°41' E 012°36'0 0.0
2019-Jul-07 04:59N 55°41' E 012°36'0 0.0
2019-Jul-07 04:29N 55°41' E 012°36'0 0.0
2019-Jul-07 03:59N 55°41' E 012°36'0 0.0
2019-Jul-07 03:29N 55°41' E 012°36'0 0.0
2019-Jul-07 02:59N 55°41' E 012°36'0 0.0
2019-Jul-07 01:56N 55°41' E 012°36'0 0.0
2019-Jul-07 01:29N 55°41' E 012°36'0 0.0
2019-Jul-07 00:53N 55°41' E 012°36'0 0.0
2019-Jul-07 00:26N 55°41' E 012°36'0 0.0
2019-Jul-06 23:59N 55°41' E 012°36'0 0.0
2019-Jul-06 23:29N 55°41' E 012°36'0 0.0
2019-Jul-06 22:56N 55°41' E 012°36'0 0.0
2019-Jul-06 22:29N 55°41' E 012°36'0 0.0
2019-Jul-06 21:59N 55°41' E 012°36'0 0.0
2019-Jul-06 21:29N 55°41' E 012°36'0 0.0
2019-Jul-06 20:59N 55°41' E 012°36'0 0.0
2019-Jul-06 20:29N 55°41' E 012°36'0 0.0
2019-Jul-06 19:59N 55°41' E 012°36'0 0.0
2019-Jul-06 19:29N 55°41' E 012°36'0 0.0
2019-Jul-06 18:59N 55°41' E 012°36'0 0.0
2019-Jul-06 18:29N 55°41' E 012°36'0 0.0
2019-Jul-06 17:53N 55°41' E 012°36'0 0.0
2019-Jul-06 17:29N 55°41' E 012°36'0 0.0
2019-Jul-06 16:59N 55°41' E 012°36'0 0.0
2019-Jul-06 16:29N 55°41' E 012°36'0 0.0
2019-Jul-06 15:59N 55°41' E 012°36'0 0.0
2019-Jul-06 15:29N 55°41' E 012°36'0 0.0
2019-Jul-06 14:59N 55°41' E 012°36'0 0.0
2019-Jul-06 14:29N 55°41' E 012°36'0 0.0
2019-Jul-06 13:59N 55°41' E 012°36'0 0.0
2019-Jul-06 13:29N 55°41' E 012°36'0 0.0
2019-Jul-06 12:56N 55°41' E 012°36'0 0.0
2019-Jul-06 12:29N 55°41' E 012°36'0 0.0
2019-Jul-06 11:59N 55°41' E 012°36'0 0.0
2019-Jul-06 11:29N 55°41' E 012°36'0 0.0
2019-Jul-06 10:59N 55°41' E 012°36'  
Track history (hours):
 
Tides and Currents Weather Stations Pressure Air Temp Water Temp Dewpoint Dewpoint Depression Visibility Wind Speed Wind Dir Waves Ship Positions

Silver Wind

Operator: V Ships Leisure

Last reported at 2019-Jul-16 10:53 UTC. Time now 2019-Jul-16 11:14 UTC.
Position N 49°28' W 002°31'.

Length 156 m; draft 5.7 m.

Type: Passenger vessel. MMSI: 308814000.

Date/timePositionNaut miles runAvg speedWind from/ knotsBaromVisibWave heightAir tempDewpointWater temp
2019-Jul-16 10:53N 49°28' W 002°31'0 0.0
2019-Jul-16 09:53N 49°28' W 002°31'0 0.0
2019-Jul-16 09:29N 49°28' W 002°31'0 0.0
2019-Jul-16 08:53N 49°28' W 002°31'0 0.0
2019-Jul-16 08:23N 49°28' W 002°31'0 0.0
2019-Jul-16 07:53N 49°28' W 002°31'0 0.0
2019-Jul-16 07:29N 49°28' W 002°31'0 0.0
2019-Jul-16 06:56N 49°28' W 002°31'0 0.1
2019-Jul-16 06:27N 49°28' W 002°31'0 0.6
2019-Jul-16 06:00N 49°28' W 002°31'510.3
2019-Jul-16 05:30N 49°24' W 002°26'510.8
2019-Jul-16 05:01N 49°23' W 002°18'510.1
2019-Jul-16 04:30N 49°26' W 002°12'510.8
2019-Jul-16 04:01N 49°32' W 002°10'510.8
2019-Jul-16 03:31N 49°37' W 002°07'510.8
2019-Jul-16 03:01N 49°42' W 002°05'611.5
2019-Jul-16 02:29N 49°48' W 002°03'510.7
2019-Jul-16 01:59N 49°49' W 001°55'611.3
2019-Jul-16 01:29N 49°51' W 001°46'712.0
2019-Jul-16 00:57N 49°52' W 001°36'611.8
2019-Jul-16 00:25N 49°52' W 001°27'2612.0
2019-Jul-15 22:17N 49°43' W 000°50'311.6
2019-Jul-15 22:00N 49°42' W 000°46'611.6
2019-Jul-15 21:30N 49°39' W 000°38'611.8
2019-Jul-15 21:00N 49°37' W 000°29'611.8
2019-Jul-15 20:30N 49°35' W 000°21'611.6
2019-Jul-15 20:00N 49°33' W 000°12'611.9
2019-Jul-15 19:31N 49°31' W 000°04'612.5
2019-Jul-15 19:00N 49°29' E 000°06'1 1.1
2019-Jul-15 18:30N 49°29' E 000°06'0 0.0
2019-Jul-15 18:00N 49°29' E 000°06'0 0.0
2019-Jul-15 17:30N 49°29' E 000°06'0 0.0
2019-Jul-15 17:00N 49°29' E 000°06'0 0.0
2019-Jul-15 16:30N 49°29' E 000°06'0 0.0
2019-Jul-15 16:00N 49°29' E 000°06'0 0.0
2019-Jul-15 15:30N 49°29' E 000°06'0 0.0
2019-Jul-15 15:00N 49°29' E 000°06'0 0.0
2019-Jul-15 14:30N 49°29' E 000°06'0 0.0
2019-Jul-15 14:00N 49°29' E 000°06'0 0.0
2019-Jul-15 13:30N 49°29' E 000°06'0 0.0
2019-Jul-15 13:00N 49°29' E 000°06'0 0.0
2019-Jul-15 12:30N 49°29' E 000°06'0 0.0
2019-Jul-15 12:00N 49°29' E 000°06'0 0.0
2019-Jul-15 11:30N 49°29' E 000°06'0 0.0
2019-Jul-15 11:00N 49°29' E 000°06'0 0.0
2019-Jul-15 10:30N 49°29' E 000°06'0 0.0
2019-Jul-15 10:00N 49°29' E 000°06'0 0.0
2019-Jul-15 09:30N 49°29' E 000°06'0 0.0
2019-Jul-15 09:00N 49°29' E 000°06'0 0.0
2019-Jul-15 08:30N 49°29' E 000°06'0 0.0
2019-Jul-15 08:00N 49°29' E 000°06'0 0.0
2019-Jul-15 07:30N 49°29' E 000°06'0 0.0
2019-Jul-15 07:00N 49°29' E 000°06'0 0.0
2019-Jul-15 06:30N 49°29' E 000°06'0 1.0
2019-Jul-15 06:00N 49°29' E 000°06'815.1
2019-Jul-15 05:30N 49°31' W 000°06'511.0
2019-Jul-15 05:01N 49°34' W 000°12'714.4
2019-Jul-15 04:31N 49°41' W 000°13'714.5
2019-Jul-15 04:01N 49°49' W 000°13'714.5
2019-Jul-15 03:31N 49°56' W 000°13'714.4
2019-Jul-15 03:00N 50°03' W 000°13'714.5
2019-Jul-15 02:30N 50°10' W 000°13'1216.3
2019-Jul-15 01:45N 50°23' W 000°12'413.5
2019-Jul-15 01:26N 50°27' W 000°09'1615.4
2019-Jul-15 00:23N 50°31' E 000°15'1715.7
2019-Jul-14 23:17N 50°37' E 000°41'416.4
2019-Jul-14 23:00N 50°39' E 000°47'816.1
2019-Jul-14 22:30N 50°44' E 000°57'815.6
2019-Jul-14 21:59N 50°49' E 001°08'715.3
2019-Jul-14 21:30N 50°54' E 001°16'714.3
2019-Jul-14 21:01N 50°59' E 001°24'714.8
2019-Jul-14 20:30N 51°04' E 001°32'714.8
2019-Jul-14 20:00N 51°09' E 001°40'815.0
2019-Jul-14 19:31N 51°15' E 001°48'815.6
2019-Jul-14 19:01N 51°21' E 001°55'713.3
2019-Jul-14 18:31N 51°24' E 002°05'714.2
2019-Jul-14 18:01N 51°21' E 002°15'815.1
2019-Jul-14 17:30N 51°23' E 002°27'815.8
2019-Jul-14 17:00N 51°22' E 002°40'815.5
2019-Jul-14 16:31N 51°22' E 002°52'917.3
2019-Jul-14 16:00N 51°24' E 003°06'510.8
2019-Jul-14 15:30N 51°20' E 003°12'0 0.0
2019-Jul-14 14:27N 51°20' E 003°12'0 0.0
2019-Jul-14 13:51N 51°20' E 003°12'0 0.0
2019-Jul-14 13:30N 51°20' E 003°12'0 0.0
2019-Jul-14 12:57N 51°20' E 003°12'0 0.0
2019-Jul-14 12:27N 51°20' E 003°12'0 0.0
2019-Jul-14 11:45N 51°20' E 003°12'0 0.0
2019-Jul-14 11:15N 51°20' E 003°12'0 0.0
2019-Jul-14 10:51N 51°20' E 003°12'0 0.0
2019-Jul-14 10:27N 51°20' E 003°12'0 0.0
2019-Jul-14 09:33N 51°20' E 003°12'0 0.0
2019-Jul-14 09:27N 51°20' E 003°12'0 0.0
2019-Jul-14 08:45N 51°20' E 003°12'0 0.0
2019-Jul-14 08:18N 51°20' E 003°12'0 0.0
2019-Jul-14 07:45N 51°20' E 003°12'0 0.0
2019-Jul-14 07:27N 51°20' E 003°12'0 0.0
2019-Jul-14 07:00N 51°20' E 003°12'0 0.0
2019-Jul-14 06:27N 51°20' E 003°12'0 0.0
2019-Jul-14 05:57N 51°20' E 003°12'0 0.3
2019-Jul-14 05:30N 51°20' E 003°13'5 9.2
2019-Jul-14 05:00N 51°24' E 003°08'714.4
2019-Jul-14 04:29N 51°22' E 002°56'715.2
2019-Jul-14 04:00N 51°22' E 002°45'5 8.8
2019-Jul-14 03:24N 51°26' E 002°50'611.0
2019-Jul-14 02:51N 51°29' E 002°59'512.6
2019-Jul-14 02:26N 51°32' E 003°05'2911.4
2019-Jul-13 23:52N 51°60' E 003°20'411.5
2019-Jul-13 23:30N 52°04' E 003°21'611.5
2019-Jul-13 23:00N 52°10' E 003°22'611.2
2019-Jul-13 22:30N 52°15' E 003°26'611.6
2019-Jul-13 22:00N 52°20' E 003°30'711.4
2019-Jul-13 21:21N 52°27' E 003°35'411.6
2019-Jul-13 21:00N 52°30' E 003°39'612.3
2019-Jul-13 20:30N 52°31' E 003°49'612.6
2019-Jul-13 20:00N 52°31' E 003°59'612.5
2019-Jul-13 19:30N 52°31' E 004°09'612.7
2019-Jul-13 19:00N 52°30' E 004°19'612.3
2019-Jul-13 18:31N 52°28' E 004°29'4 8.9
2019-Jul-13 18:01N 52°28' E 004°36'1 2.9
2019-Jul-13 17:30N 52°28' E 004°39'4 8.6
2019-Jul-13 17:01N 52°26' E 004°45'4 8.8
2019-Jul-13 16:31N 52°25' E 004°52'3 5.5
2019-Jul-13 16:00N 52°23' E 004°55'0 0.0
2019-Jul-13 15:30N 52°23' E 004°55'0 0.0
2019-Jul-13 14:58N 52°23' E 004°55'0 0.0
2019-Jul-13 14:28N 52°23' E 004°55'0 0.0
2019-Jul-13 13:58N 52°23' E 004°55'0 0.0
2019-Jul-13 13:25N 52°23' E 004°55'0 0.0
2019-Jul-13 12:58N 52°23' E 004°55'0 0.0
2019-Jul-13 12:28N 52°23' E 004°55'0 0.0
2019-Jul-13 11:58N 52°23' E 004°55'0 0.0
2019-Jul-13 11:28N 52°23' E 004°55'0 0.0
2019-Jul-13 10:58N 52°23' E 004°55'0 0.0
2019-Jul-13 10:28N 52°23' E 004°55'0 0.0
2019-Jul-13 09:58N 52°23' E 004°55'0 0.0
2019-Jul-13 09:28N 52°23' E 004°55'0 0.0
2019-Jul-13 08:58N 52°23' E 004°55'0 0.0
2019-Jul-13 08:28N 52°23' E 004°55'0 0.0
2019-Jul-13 07:58N 52°23' E 004°55'0 0.0
2019-Jul-13 07:28N 52°23' E 004°55'0 0.0
2019-Jul-13 06:58N 52°23' E 004°55'0 0.0
2019-Jul-13 06:28N 52°23' E 004°55'0 0.0
2019-Jul-13 05:58N 52°23' E 004°55'0 0.0
2019-Jul-13 05:28N 52°23' E 004°55'0 0.0
2019-Jul-13 04:58N 52°23' E 004°55'0 0.0
2019-Jul-13 04:28N 52°23' E 004°55'0 0.0
2019-Jul-13 03:58N 52°23' E 004°55'0 0.0
2019-Jul-13 03:28N 52°23' E 004°55'0 0.0
2019-Jul-13 02:58N 52°23' E 004°55'0 0.0
2019-Jul-13 02:28N 52°23' E 004°55'0 0.0
2019-Jul-13 01:58N 52°23' E 004°55'0 0.0
2019-Jul-13 01:28N 52°23' E 004°55'0 0.0
2019-Jul-13 00:58N 52°23' E 004°55'0 0.0
2019-Jul-13 00:28N 52°23' E 004°55'0 0.0
2019-Jul-12 23:58N 52°23' E 004°55'0 0.0
2019-Jul-12 23:28N 52°23' E 004°55'0 0.0
2019-Jul-12 22:58N 52°23' E 004°55'0 0.0
2019-Jul-12 22:28N 52°23' E 004°55'0 0.0
2019-Jul-12 21:58N 52°23' E 004°55'0 0.0
2019-Jul-12 21:28N 52°23' E 004°55'0 0.0
2019-Jul-12 20:58N 52°23' E 004°55'0 0.0
2019-Jul-12 20:28N 52°23' E 004°55'0 0.0
2019-Jul-12 19:58N 52°23' E 004°55'0 0.1
2019-Jul-12 19:28N 52°23' E 004°55'0 0.1
2019-Jul-12 18:58N 52°23' E 004°55'0 0.0
2019-Jul-12 18:28N 52°23' E 004°55'0 0.0
2019-Jul-12 17:58N 52°23' E 004°55'0 0.0
2019-Jul-12 17:28N 52°23' E 004°55'0 0.0
2019-Jul-12 16:58N 52°23' E 004°55'0 0.0
2019-Jul-12 16:28N 52°23' E 004°55'0 0.0
2019-Jul-12 15:58N 52°23' E 004°55'0 0.0
2019-Jul-12 15:28N 52°23' E 004°55'0 0.0
2019-Jul-12 14:58N 52°23' E 004°55'0 0.0
2019-Jul-12 14:28N 52°23' E 004°55'0 0.0
2019-Jul-12 13:58N 52°23' E 004°55'0 0.0
2019-Jul-12 13:28N 52°23' E 004°55'0 0.0
2019-Jul-12 12:58N 52°23' E 004°55'0 0.0
2019-Jul-12 12:28N 52°23' E 004°55'0 0.0
2019-Jul-12 11:58N 52°23' E 004°55'0 0.0
2019-Jul-12 11:28N 52°23' E 004°55'0 0.0
2019-Jul-12 10:58N 52°23' E 004°55'0 0.0
2019-Jul-12 10:28N 52°23' E 004°55'0 0.0
2019-Jul-12 09:58N 52°23' E 004°55'2 4.1
2019-Jul-12 09:28N 52°25' E 004°55'2 4.1
2019-Jul-12 08:58N 52°23' E 004°55'0 0.0
2019-Jul-12 08:28N 52°23' E 004°55'0 0.0
2019-Jul-12 07:58N 52°23' E 004°55'0 0.0
2019-Jul-12 07:28N 52°23' E 004°55'0 0.0
2019-Jul-12 06:58N 52°23' E 004°55'0 0.0
2019-Jul-12 06:28N 52°23' E 004°55'0 0.0
2019-Jul-12 06:00N 52°23' E 004°55'0 0.0
2019-Jul-12 05:30N 52°23' E 004°55'0 1.0
2019-Jul-12 05:00N 52°23' E 004°54'3 6.3
2019-Jul-12 04:30N 52°25' E 004°51'4 8.0
2019-Jul-12 04:01N 52°26' E 004°44'4 7.7
2019-Jul-12 03:31N 52°28' E 004°39'1 2.5
2019-Jul-12 03:01N 52°28' E 004°37'2 3.9
2019-Jul-12 02:31N 52°28' E 004°33'1211.5
2019-Jul-12 01:30N 52°30' E 004°15'510.7
2019-Jul-12 01:01N 52°32' E 004°07'611.9
2019-Jul-12 00:30N 52°38' E 004°03'611.9
2019-Jul-12 00:00N 52°43' E 004°00'611.8
2019-Jul-11 23:30N 52°49' E 003°58'611.8
2019-Jul-11 23:00N 52°55' E 003°60'611.2
2019-Jul-11 22:30N 52°59' E 004°05'611.6
2019-Jul-11 22:00N 53°03' E 004°12'611.2
2019-Jul-11 21:30N 53°07' E 004°19'611.5
2019-Jul-11 21:00N 53°12' E 004°25'611.6
2019-Jul-11 20:30N 53°17' E 004°29'611.6
2019-Jul-11 20:00N 53°23' E 004°31'23212.1
2019-Jul-11 00:51N 56°52' E 007°24'412.4
2019-Jul-11 00:30N 56°56' E 007°27'712.3
2019-Jul-10 23:58N 57°03' E 007°32'612.4
2019-Jul-10 23:30N 57°08' E 007°37'711.9
2019-Jul-10 22:55N 57°13' E 007°44'512.2
2019-Jul-10 22:28N 57°18' E 007°49'612.1
2019-Jul-10 22:00N 57°23' E 007°53'612.1
2019-Jul-10 21:31N 57°29' E 007°58'612.0
2019-Jul-10 21:00N 57°34' E 008°03'612.2
2019-Jul-10 20:29N 57°40' E 008°08'612.0
2019-Jul-10 20:00N 57°45' E 008°13'612.2
2019-Jul-10 19:30N 57°50' E 008°18'612.3
2019-Jul-10 19:00N 57°56' E 008°23'612.3
2019-Jul-10 18:30N 58°02' E 008°28'612.4
2019-Jul-10 18:00N 58°07' E 008°34'612.4
2019-Jul-10 17:30N 58°13' E 008°39'612.4
2019-Jul-10 17:01N 58°18' E 008°44'612.2
2019-Jul-10 16:30N 58°24' E 008°49'4 7.8
2019-Jul-10 16:00N 58°27' E 008°46'0 0.3
2019-Jul-10 15:30N 58°28' E 008°46'0 0.0
2019-Jul-10 14:52N 58°28' E 008°46'0 0.0
2019-Jul-10 14:28N 58°28' E 008°46'0 0.0
2019-Jul-10 13:58N 58°28' E 008°46'0 0.0
2019-Jul-10 13:28N 58°28' E 008°46'0 0.0
2019-Jul-10 12:55N 58°28' E 008°46'0 0.0
2019-Jul-10 11:46N 58°28' E 008°46'0 0.0
2019-Jul-10 10:55N 58°28' E 008°46'0 0.0
2019-Jul-10 10:04N 58°28' E 008°46'1 0.3
2019-Jul-10 05:27N 58°26' E 008°47'3 7.3
2019-Jul-10 05:00N 58°24' E 008°52'4 8.6
2019-Jul-10 04:30N 58°27' E 008°59'4 7.8
2019-Jul-10 04:00N 58°29' E 009°05'4 7.9
2019-Jul-10 03:30N 58°31' E 009°11'4 7.2
2019-Jul-10 02:58N 58°33' E 009°17'3 7.2
2019-Jul-10 02:30N 58°35' E 009°23'4 7.0
2019-Jul-10 02:00N 58°37' E 009°28'4 7.1
2019-Jul-10 01:30N 58°40' E 009°33'4 7.4
2019-Jul-10 01:00N 58°41' E 009°40'4 7.2
2019-Jul-10 00:30N 58°43' E 009°45'3 6.7
2019-Jul-10 00:00N 58°45' E 009°51'5 6.4
2019-Jul-09 23:14N 58°48' E 009°59'2 6.4
2019-Jul-09 23:00N 58°49' E 010°01'3 6.8
2019-Jul-09 22:30N 58°50' E 010°07'4 7.6
2019-Jul-09 22:01N 58°52' E 010°13'4 7.7
2019-Jul-09 21:31N 58°54' E 010°19'4 7.4
2019-Jul-09 21:01N 58°56' E 010°25'4 7.2
2019-Jul-09 20:30N 58°58' E 010°31'3 6.4
2019-Jul-09 20:01N 59°01' E 010°35'3 6.8
2019-Jul-09 19:30N 59°04' E 010°34'613.0
2019-Jul-09 19:01N 59°10' E 010°37'917.5
2019-Jul-09 18:31N 59°19' E 010°35'917.3
2019-Jul-09 18:01N 59°28' E 010°33'917.2
2019-Jul-09 17:31N 59°36' E 010°38'714.2
2019-Jul-09 16:59N 59°43' E 010°34'815.6
2019-Jul-09 16:30N 59°51' E 010°37'5 8.5
2019-Jul-09 15:52N 59°54' E 010°45'0 0.0
2019-Jul-09 14:15N 59°54' E 010°45'0 0.0
2019-Jul-09 14:00N 59°54' E 010°45'0 0.0
2019-Jul-09 13:30N 59°54' E 010°45'0 0.0
2019-Jul-09 13:00N 59°54' E 010°45'0 0.0
2019-Jul-09 12:30N 59°54' E 010°45'0 0.0
2019-Jul-09 12:00N 59°54' E 010°45'0 0.0
2019-Jul-09 11:30N 59°54' E 010°45'0 0.0
2019-Jul-09 11:00N 59°54' E 010°45'0 0.0
2019-Jul-09 10:30N 59°54' E 010°45'0 0.0
2019-Jul-09 10:00N 59°54' E 010°45'0 0.0
2019-Jul-09 09:30N 59°54' E 010°45'0 0.0
2019-Jul-09 09:00N 59°54' E 010°45'0 0.0
2019-Jul-09 08:30N 59°54' E 010°45'0 0.0
2019-Jul-09 08:00N 59°54' E 010°45'0 0.0
2019-Jul-09 07:30N 59°54' E 010°45'0 0.0
2019-Jul-09 07:00N 59°54' E 010°45'0 0.0
2019-Jul-09 06:30N 59°54' E 010°45'0 0.0
2019-Jul-09 06:00N 59°54' E 010°45'1 2.2
2019-Jul-09 05:30N 59°54' E 010°43'612.4
2019-Jul-09 05:00N 59°49' E 010°35'815.4
2019-Jul-09 04:31N 59°41' E 010°36'714.8
2019-Jul-09 04:00N 59°34' E 010°38'816.0
2019-Jul-09 03:31N 59°27' E 010°34'816.1
2019-Jul-09 03:01N 59°19' E 010°37'815.9
2019-Jul-09 02:31N 59°11' E 010°39'713.4
2019-Jul-09 02:01N 59°04' E 010°35'5 9.9
2019-Jul-09 01:30N 58°60' E 010°37'510.7
2019-Jul-09 01:00N 58°54' E 010°41'510.6
2019-Jul-09 00:30N 58°49' E 010°43'510.8
2019-Jul-09 00:00N 58°44' E 010°46'510.6
2019-Jul-08 23:30N 58°39' E 010°48'510.5
2019-Jul-08 23:00N 58°34' E 010°51'510.4
2019-Jul-08 22:30N 58°29' E 010°54'510.6
2019-Jul-08 22:00N 58°24' E 010°57'511.0
2019-Jul-08 21:30N 58°19' E 010°60'611.3
2019-Jul-08 21:01N 58°13' E 011°03'511.0
2019-Jul-08 20:31N 58°08' E 011°06'510.9
2019-Jul-08 20:00N 58°03' E 011°08'611.4
2019-Jul-08 19:31N 57°57' E 011°12'611.3
2019-Jul-08 19:01N 57°52' E 011°15'611.1
2019-Jul-08 18:31N 57°46' E 011°18'510.8
2019-Jul-08 18:01N 57°42' E 011°22'510.7
2019-Jul-08 17:31N 57°38' E 011°29'510.9
2019-Jul-08 17:01N 57°37' E 011°39'611.8
2019-Jul-08 16:31N 57°40' E 011°48'5 9.3
2019-Jul-08 16:00N 57°42' E 011°56'0 0.0
2019-Jul-08 15:30N 57°42' E 011°56'0 0.0
2019-Jul-08 15:00N 57°42' E 011°56'0 0.0
2019-Jul-08 14:30N 57°42' E 011°56'0 0.0
2019-Jul-08 14:00N 57°42' E 011°56'0 0.0
2019-Jul-08 13:30N 57°42' E 011°56'0 0.0
2019-Jul-08 13:00N 57°42' E 011°56'0 0.0
2019-Jul-08 12:30N 57°42' E 011°56'0 0.0
2019-Jul-08 12:00N 57°42' E 011°56'0 0.0
2019-Jul-08 11:30N 57°42' E 011°56'0 0.0
2019-Jul-08 11:00N 57°42' E 011°56'0 0.0
2019-Jul-08 10:30N 57°42' E 011°56'0 0.0
2019-Jul-08 10:00N 57°42' E 011°56'0 0.0
2019-Jul-08 09:30N 57°42' E 011°56'0 0.0
2019-Jul-08 09:00N 57°42' E 011°56'0 0.0
2019-Jul-08 08:30N 57°42' E 011°56'0 0.0
2019-Jul-08 08:00N 57°42' E 011°56'0 0.0
2019-Jul-08 07:30N 57°42' E 011°56'0 0.0
2019-Jul-08 07:00N 57°42' E 011°56'0 0.0
2019-Jul-08 06:30N 57°42' E 011°56'0 0.0
2019-Jul-08 06:00N 57°42' E 011°56'0 0.6
2019-Jul-08 05:30N 57°42' E 011°55'4 7.5
2019-Jul-08 05:00N 57°41' E 011°49'714.8
2019-Jul-08 04:30N 57°35' E 011°39'611.2
2019-Jul-08 04:00N 57°30' E 011°38'510.3
2019-Jul-08 03:30N 57°25' E 011°39'5 9.5
2019-Jul-08 03:00N 57°20' E 011°39'5 9.4
2019-Jul-08 02:30N 57°15' E 011°39'5 9.9
2019-Jul-08 02:00N 57°10' E 011°40'5 9.8
2019-Jul-08 01:30N 57°06' E 011°41'5 9.9
2019-Jul-08 01:00N 57°01' E 011°44'5 9.6
2019-Jul-08 00:30N 56°56' E 011°47'6 9.7
2019-Jul-07 23:54N 56°51' E 011°51'15 9.8
2019-Jul-07 22:23N 56°36' E 011°57'25 9.2
2019-Jul-07 19:41N 56°14' E 012°17'3 9.9
2019-Jul-07 19:25N 56°12' E 012°21'410.1
2019-Jul-07 19:00N 56°10' E 012°26'5 9.7
2019-Jul-07 18:30N 56°07' E 012°33'510.0
2019-Jul-07 18:01N 56°03' E 012°40'612.1
2019-Jul-07 17:30N 55°57' E 012°43'713.1
2019-Jul-07 17:00N 55°51' E 012°43'713.4
2019-Jul-07 16:30N 55°44' E 012°40'4 7.0
2019-Jul-07 16:00N 55°42' E 012°36'0 0.7
2019-Jul-07 15:30N 55°41' E 012°36'0 0.0
2019-Jul-07 14:59N 55°41' E 012°36'0 0.0
2019-Jul-07 14:23N 55°41' E 012°36'0 0.0
2019-Jul-07 13:56N 55°41' E 012°36'0 0.0
2019-Jul-07 13:29N 55°41' E 012°36'0 0.0
2019-Jul-07 12:53N 55°41' E 012°36'0 0.0
2019-Jul-07 12:29N 55°41' E 012°36'0 0.0
2019-Jul-07 11:59N 55°41' E 012°36'0 0.0
2019-Jul-07 11:29N 55°41' E 012°36'0 0.0
2019-Jul-07 10:56N 55°41' E 012°36'0 0.0
2019-Jul-07 10:29N 55°41' E 012°36'0 0.0
2019-Jul-07 09:59N 55°41' E 012°36'0 0.0
2019-Jul-07 09:26N 55°41' E 012°36'0 0.0
2019-Jul-07 08:59N 55°41' E 012°36'0 0.0
2019-Jul-07 08:29N 55°41' E 012°36'0 0.0
2019-Jul-07 07:59N 55°41' E 012°36'0 0.0
2019-Jul-07 07:29N 55°41' E 012°36'0 0.0
2019-Jul-07 06:59N 55°41' E 012°36'0 0.0
2019-Jul-07 06:29N 55°41' E 012°36'0 0.0
2019-Jul-07 05:59N 55°41' E 012°36'0 0.0
2019-Jul-07 05:29N 55°41' E 012°36'0 0.0
2019-Jul-07 04:59N 55°41' E 012°36'0 0.0
2019-Jul-07 04:29N 55°41' E 012°36'0 0.0
2019-Jul-07 03:59N 55°41' E 012°36'0 0.0
2019-Jul-07 03:29N 55°41' E 012°36'0 0.0
2019-Jul-07 02:59N 55°41' E 012°36'0 0.0
2019-Jul-07 01:56N 55°41' E 012°36'0 0.0
2019-Jul-07 01:29N 55°41' E 012°36'0 0.0
2019-Jul-07 00:53N 55°41' E 012°36'0 0.0
2019-Jul-07 00:26N 55°41' E 012°36'0 0.0
2019-Jul-06 23:59N 55°41' E 012°36'0 0.0
2019-Jul-06 23:29N 55°41' E 012°36'0 0.0
2019-Jul-06 22:56N 55°41' E 012°36'0 0.0
2019-Jul-06 22:29N 55°41' E 012°36'0 0.0
2019-Jul-06 21:59N 55°41' E 012°36'0 0.0
2019-Jul-06 21:29N 55°41' E 012°36'0 0.0
2019-Jul-06 20:59N 55°41' E 012°36'0 0.0
2019-Jul-06 20:29N 55°41' E 012°36'0 0.0
2019-Jul-06 19:59N 55°41' E 012°36'0 0.0
2019-Jul-06 19:29N 55°41' E 012°36'0 0.0
2019-Jul-06 18:59N 55°41' E 012°36'0 0.0
2019-Jul-06 18:29N 55°41' E 012°36'0 0.0
2019-Jul-06 17:53N 55°41' E 012°36'0 0.0
2019-Jul-06 17:29N 55°41' E 012°36'0 0.0
2019-Jul-06 16:59N 55°41' E 012°36'0 0.0
2019-Jul-06 16:29N 55°41' E 012°36'0 0.0
2019-Jul-06 15:59N 55°41' E 012°36'0 0.0
2019-Jul-06 15:29N 55°41' E 012°36'0 0.0
2019-Jul-06 14:59N 55°41' E 012°36'0 0.0
2019-Jul-06 14:29N 55°41' E 012°36'0 0.0
2019-Jul-06 13:59N 55°41' E 012°36'0 0.0
2019-Jul-06 13:29N 55°41' E 012°36'0 0.0
2019-Jul-06 12:56N 55°41' E 012°36'0 0.0
2019-Jul-06 12:29N 55°41' E 012°36'0 0.0
2019-Jul-06 11:59N 55°41' E 012°36'0 0.0
2019-Jul-06 11:29N 55°41' E 012°36'0 0.0
2019-Jul-06 10:59N 55°41' E 012°36'  

Dump ship's entire track history